Language: 


Des rapports , des résumés tant et plus, au choix de chacun....


Données statistiques de la station
Quotidien Rapport Juin 23, 2017 Unités:  Anglais    Métrique   les deux
« Précédent Jour
Suivant Jour »
Quotidien Hebdomadaire Mensuel Annuel Actuel
  Haut: Bas: Moyen:
Température: 75.2 °F 57.7 °F 65.8 °F
Pt de rosée: 62.6 °F 51.8 °F 56.5 °F
Humidité: 96 % 47 % 73 %
Vitesse du vent: 23.7 mph 0 mph 9.1 mph
Rafales: 26.8 mph - -
Vent:- - WSW
Pression: 30.1 in 29.9 in -
Précipitation: 0 in    
Historical Graphs
 
 
Données statistiques pour Juin 23, 2017
Heure Température Point de rosée Pression Vent Vitesse du vent Refales Humidité Pluie (taux horaire)
00:00 61.9 °F 59 °F 30 in WSW 4.9 mph 7.8 mph 87 % 0 in
00:05 61.7 °F 59 °F 30 in WSW 8.1 mph 8.7 mph 88 % 0 in
00:07 61.7 °F 59 °F 30 in West 3.6 mph 8.7 mph 88 % 0 in
00:12 61.9 °F 59 °F 30 in West 6 mph 9.6 mph 89 % 0 in
00:17 61.9 °F 59 °F 29.9 in WSW 8.5 mph 9.6 mph 89 % 0 in
00:22 61.9 °F 59 °F 29.9 in WSW 4.9 mph 8.9 mph 89 % 0 in
00:28 61.9 °F 59 °F 29.9 in Calm   7.4 mph 89 % 0 in
00:33 61.7 °F 59 °F 30 in Calm   6.5 mph 88 % 0 in
00:38 61.5 °F 57.2 °F 30 in WSW 3.8 mph 5.8 mph 88 % 0 in
00:43 61.3 °F 57.2 °F 30 in Calm   6.3 mph 88 % 0 in
00:48 61 °F 57.2 °F 30 in SW 4 mph 6.3 mph 89 % 0 in
00:53 61 °F 57.2 °F 30 in WSW 5.4 mph 6.5 mph 89 % 0 in
00:58 60.8 °F 57.2 °F 30 in WSW 6 mph 7.2 mph 89 % 0 in
01:02 60.6 °F 57.2 °F 30 in WSW 2.5 mph 7.2 mph 90 % 0 in
01:07 60.4 °F 57.2 °F 30 in WSW 3.8 mph 6.7 mph 90 % 0 in
01:12 60.3 °F 57.2 °F 30 in WSW 4.9 mph 6.5 mph 90 % 0 in
01:17 60.3 °F 57.2 °F 30 in West 4.5 mph 6.3 mph 91 % 0 in
01:22 60.1 °F 57.2 °F 30 in WSW 4.7 mph 6.5 mph 91 % 0 in
01:27 60.1 °F 57.2 °F 30 in West 5.6 mph 6.5 mph 91 % 0 in
01:32 60.1 °F 57.2 °F 30 in WSW 6.5 mph 6.5 mph 91 % 0 in
01:37 60.1 °F 57.2 °F 30 in West 7.4 mph 7.6 mph 91 % 0 in
01:42 60.1 °F 57.2 °F 30 in WSW 4.3 mph 8.1 mph 92 % 0 in
01:47 60.1 °F 57.2 °F 30 in SW 4.3 mph 8.1 mph 92 % 0 in
01:52 60.1 °F 57.2 °F 30 in WSW 7.2 mph 7.8 mph 92 % 0 in
01:57 60.1 °F 57.2 °F 30 in WSW 4 mph 7.6 mph 92 % 0 in
02:02 60.1 °F 57.2 °F 30 in Calm   7.6 mph 92 % 0 in
02:07 59.9 °F 57.2 °F 30 in West 4 mph 7.6 mph 92 % 0 in
02:12 59.7 °F 57.2 °F 30 in Calm   5.8 mph 92 % 0 in
02:17 59.7 °F 57.2 °F 30 in Calm   5.8 mph 92 % 0 in
02:18 59.7 °F 57.2 °F 30 in Calm   5.8 mph 92 % 0 in
02:23 59.7 °F 57.2 °F 30 in WSW 4 mph 5.8 mph 92 % 0 in
02:24 59.7 °F 57.2 °F 30 in WSW 3.6 mph 5.8 mph 92 % 0 in
02:29 59.7 °F 57.2 °F 30 in WSW 6 mph 6 mph 92 % 0 in
02:34 59.7 °F 57.2 °F 30 in WSW 4.7 mph 6.3 mph 92 % 0 in
02:35 59.7 °F 57.2 °F 30 in WSW 8.1 mph 8.1 mph 92 % 0 in
02:40 59.5 °F 57.2 °F 30 in Calm   8.1 mph 92 % 0 in
02:45 59.5 °F 57.2 °F 30 in Calm   5.4 mph 92 % 0 in
02:50 59.5 °F 57.2 °F 30 in SW 1.3 mph 5.4 mph 93 % 0 in
02:55 59.4 °F 57.2 °F 30 in SW 3.6 mph 6 mph 93 % 0 in
03:00 59.5 °F 57.2 °F 30 in SSW 4.7 mph 6 mph 93 % 0 in
03:05 59.5 °F 57.2 °F 30 in Calm   5.6 mph 93 % 0 in
03:10 59.5 °F 57.2 °F 30 in West 5.4 mph 5.4 mph 93 % 0 in
03:15 59.5 °F 57.2 °F 30 in SW 2.7 mph 5.6 mph 93 % 0 in
03:20 59.5 °F 57.2 °F 30 in West 2.2 mph 6 mph 93 % 0 in
03:25 59.5 °F 57.2 °F 30 in WSW 5.6 mph 6 mph 93 % 0 in
03:30 59.7 °F 57.2 °F 30 in Calm   5.6 mph 93 % 0 in
03:35 59.7 °F 57.2 °F 30 in WSW 4.9 mph 6 mph 93 % 0 in
03:40 59.7 °F 57.2 °F 30 in WSW 4.3 mph 6.5 mph 93 % 0 in
03:46 59.7 °F 57.2 °F 30 in Calm   6.5 mph 93 % 0 in
03:51 59.5 °F 57.2 °F 30 in Calm   4.3 mph 93 % 0 in
03:56 59.5 °F 57.2 °F 30 in Calm     93 % 0 in
04:06 59.4 °F 57.2 °F 30 in Calm   4 mph 93 % 0 in
04:11 59.2 °F 57.2 °F 30 in Calm   4 mph 93 % 0 in
04:16 59.2 °F 57.2 °F 30 in Calm   4.3 mph 93 % 0 in
04:21 59.2 °F 57.2 °F 30 in Calm   4.3 mph 93 % 0 in
04:26 59 °F 57.2 °F 30 in Calm   3.6 mph 93 % 0 in
04:31 58.8 °F 57.2 °F 30 in Calm   3.4 mph 94 % 0 in
04:36 58.8 °F 57.2 °F 30 in West 1.1 mph 3.6 mph 94 % 0 in
04:41 58.8 °F 57.2 °F 30 in Calm   4.9 mph 94 % 0 in
04:46 58.8 °F 57.2 °F 30 in WSW 3.8 mph 4.9 mph 94 % 0 in
04:51 58.8 °F 57.2 °F 30 in WSW 6.3 mph 6.5 mph 94 % 0 in
04:56 58.8 °F 57.2 °F 30 in West 5.6 mph 6.5 mph 94 % 0 in
05:01 58.8 °F 57.2 °F 30 in West 3.8 mph 6.5 mph 94 % 0 in
05:06 58.6 °F 57.2 °F 30 in West 2.9 mph 6.3 mph 94 % 0 in
05:11 58.6 °F 57.2 °F 30 in Calm   5.4 mph 94 % 0 in
05:16 58.5 °F 57.2 °F 30 in West 2.5 mph 4.3 mph 95 % 0 in
05:21 58.3 °F 57.2 °F 30 in Calm   4 mph 94 % 0 in
05:26 58.1 °F 57.2 °F 30 in Calm   3.8 mph 94 % 0 in
05:31 57.9 °F 55.4 °F 30 in Calm   3.8 mph 94 % 0 in
05:36 57.9 °F 55.4 °F 30 in Calm     94 % 0 in
05:41 57.9 °F 55.4 °F 30 in Calm     94 % 0 in
05:46 57.9 °F 57.2 °F 30 in Calm   4.5 mph 95 % 0 in
05:51 57.9 °F 57.2 °F 30 in SW 3.6 mph 4.7 mph 95 % 0 in
05:56 57.9 °F 57.2 °F 30 in Calm   4.7 mph 95 % 0 in
06:01 57.9 °F 57.2 °F 30 in Calm   3.8 mph 95 % 0 in
06:06 57.7 °F 57.2 °F 30 in Calm   2.7 mph 95 % 0 in
06:12 57.9 °F 57.2 °F 30 in Calm   4.3 mph 95 % 0 in
06:17 57.9 °F 57.2 °F 29.9 in West 4 mph 5.8 mph 96 % 0 in
06:22 58.1 °F 57.2 °F 29.9 in WSW 4 mph 5.8 mph 96 % 0 in
06:27 58.1 °F 57.2 °F 29.9 in Calm   5.8 mph 96 % 0 in
06:37 58.3 °F 57.2 °F 30 in Calm   4.3 mph 96 % 0 in
06:42 58.5 °F 57.2 °F 30 in West 4 mph 4.3 mph 96 % 0 in
06:47 58.5 °F 57.2 °F 29.9 in WSW 3.6 mph 5.8 mph 96 % 0 in
06:52 58.6 °F 57.2 °F 29.9 in WSW 3.1 mph 6.5 mph 96 % 0 in
06:57 58.8 °F 59 °F 29.9 in WSW 4.3 mph 6.5 mph 96 % 0 in
07:02 58.8 °F 59 °F 30 in WSW 2.5 mph 6.5 mph 96 % 0 in
07:07 59 °F 59 °F 30 in WSW 4 mph 5.6 mph 96 % 0 in
07:12 59 °F 57.2 °F 30 in SW 2.7 mph 4.3 mph 95 % 0 in
07:17 59.4 °F 59 °F 30 in West 4.3 mph 5.6 mph 96 % 0 in
07:22 60.3 °F 59 °F 30 in WSW 4.7 mph 5.8 mph 96 % 0 in
07:27 61 °F 60.8 °F 30 in West 5.4 mph 6 mph 96 % 0 in
07:32 61.7 °F 60.8 °F 30 in West 3.1 mph 6.3 mph 96 % 0 in
07:37 62.2 °F 60.8 °F 30 in West 6 mph 7.6 mph 95 % 0 in
07:42 62.8 °F 60.8 °F 30 in West 3.8 mph 7.6 mph 95 % 0 in
07:47 63.3 °F 60.8 °F 30 in West 5.8 mph 7.4 mph 94 % 0 in
07:52 64 °F 62.6 °F 30 in West 7.4 mph 9.6 mph 94 % 0 in
07:57 64.6 °F 62.6 °F 30 in West 4.9 mph 10.5 mph 92 % 0 in
08:02 65.1 °F 62.6 °F 30 in West 7.4 mph 12.1 mph 91 % 0 in
08:07 65.5 °F 62.6 °F 30 in West 6.3 mph 12.1 mph 90 % 0 in
08:10 65.7 °F 62.6 °F 30 in WSW 8.1 mph 12.8 mph 88 % 0 in
08:15 65.8 °F 60.8 °F 30 in West 5.8 mph 12.8 mph 86 % 0 in
08:18 66.6 °F 62.6 °F 30 in West 3.4 mph 12.7 mph 84 % 0 in
08:23 67.5 °F 62.6 °F 30 in WSW 10.3 mph 12.3 mph 82 % 0 in
08:28 67.5 °F 60.8 °F 30 in WSW 9.8 mph 13 mph 81 % 0 in
08:33 66.9 °F 60.8 °F 30 in WSW 12.3 mph 13 mph 81 % 0 in
08:38 66.6 °F 60.8 °F 30 in West 13.6 mph 13.6 mph 80 % 0 in
08:43 66.2 °F 60.8 °F 30 in WSW 9.8 mph 15.2 mph 80 % 0 in
08:48 65.8 °F 59 °F 30 in West 15.7 mph 15.7 mph 80 % 0 in
08:53 66 °F 60.8 °F 30 in West 12.1 mph 15.7 mph 80 % 0 in
08:58 66.2 °F 60.8 °F 30 in WSW 6.3 mph 13 mph 80 % 0 in
09:03 66.2 °F 60.8 °F 30 in West 10.5 mph 10.7 mph 80 % 0 in
09:08 66.7 °F 60.8 °F 30 in WSW 5.4 mph 13.2 mph 81 % 0 in
09:13 67.8 °F 60.8 °F 30 in West 8.7 mph 13.4 mph 79 % 0 in
09:18 68.4 °F 60.8 °F 30 in WSW 11.9 mph 13.9 mph 78 % 0 in
09:23 68.4 °F 60.8 °F 30 in WSW 12.3 mph 17.4 mph 77 % 0 in
09:28 69.4 °F 60.8 °F 30 in West 7.2 mph 17.4 mph 76 % 0 in
09:33 68.7 °F 59 °F 30 in WSW 15.4 mph 15.4 mph 73 % 0 in
09:38 68.4 °F 59 °F 30 in West 7.2 mph 15.4 mph 72 % 0 in
09:43 67.8 °F 59 °F 30 in West 9.8 mph 15.7 mph 72 % 0 in
09:48 67.5 °F 59 °F 30 in West 10.5 mph 15.7 mph 72 % 0 in
09:53 67.1 °F 59 °F 30 in West 5.8 mph 17.7 mph 73 % 0 in
09:58 67.1 °F 59 °F 30 in WSW 14.8 mph 17.7 mph 72 % 0 in
10:03 67.3 °F 59 °F 30 in West 9.6 mph 17.7 mph 72 % 0 in
10:08 67.5 °F 59 °F 30 in West 12.3 mph 14.8 mph 73 % 0 in
10:10 67.8 °F 59 °F 30 in West 10.3 mph 13.4 mph 73 % 0 in
10:15 67.6 °F 59 °F 30 in West 10.7 mph 14.8 mph 72 % 0 in
10:20 67.5 °F 59 °F 30 in West 7.8 mph 16.8 mph 72 % 0 in
10:25 67.5 °F 59 °F 30 in WSW 8.5 mph 16.8 mph 72 % 0 in
10:30 67.1 °F 59 °F 30 in WSW 13 mph 15.2 mph 72 % 0 in
10:35 67.1 °F 57.2 °F 30 in West 9.8 mph 17.2 mph 71 % 0 in
10:40 67.3 °F 57.2 °F 30 in West 14.1 mph 17.7 mph 70 % 0 in
10:45 67.5 °F 57.2 °F 30 in West 14.8 mph 17.7 mph 71 % 0 in
10:50 67.8 °F 59 °F 30 in WSW 9.6 mph 17.2 mph 71 % 0 in
10:55 69.1 °F 59 °F 30 in WSW 12.1 mph 14.1 mph 70 % 0 in
11:00 69.4 °F 59 °F 30 in WSW 9.8 mph 17.2 mph 68 % 0 in
11:05 69.1 °F 59 °F 30 in West 9.6 mph 17.2 mph 68 % 0 in
11:11 68.4 °F 57.2 °F 30 in West 11.4 mph 14.5 mph 69 % 0 in
11:16 68 °F 57.2 °F 30 in West 12.8 mph 14.5 mph 69 % 0 in
11:21 68 °F 57.2 °F 30 in SW 11 mph 15.2 mph 68 % 0 in
11:26 68 °F 57.2 °F 30 in West 15.2 mph 15.2 mph 67 % 0 in
11:31 67.6 °F 57.2 °F 30 in WSW 6.9 mph 15.2 mph 68 % 0 in
11:36 67.6 °F 57.2 °F 30 in WSW 10.7 mph 17.4 mph 68 % 0 in
11:41 67.8 °F 57.2 °F 30 in West 10.7 mph 17.4 mph 68 % 0 in
11:46 68.9 °F 57.2 °F 30 in WSW 12.8 mph 16.8 mph 67 % 0 in
11:51 68.7 °F 57.2 °F 30 in WSW 10.7 mph 15.2 mph 66 % 0 in
11:56 68.7 °F 57.2 °F 30 in WSW 9.2 mph 15.2 mph 67 % 0 in
12:01 70.2 °F 59 °F 30 in West 11 mph 16.1 mph 66 % 0 in
12:06 70.2 °F 57.2 °F 30 in SW 9.4 mph 16.1 mph 64 % 0 in
12:11 69.6 °F 57.2 °F 30 in WSW 7.6 mph 17.4 mph 65 % 0 in
12:16 69.8 °F 57.2 °F 30 in WSW 6.7 mph 17.4 mph 65 % 0 in
12:21 70.9 °F 57.2 °F 30 in West 17.9 mph 17.9 mph 62 % 0 in
12:26 71.1 °F 57.2 °F 30 in WSW 9.6 mph 17.9 mph 62 % 0 in
12:31 71.2 °F 57.2 °F 30 in SW 8.5 mph 15.7 mph 62 % 0 in
12:36 72.5 °F 59 °F 30 in West 10.5 mph 15.7 mph 61 % 0 in
12:41 72.9 °F 59 °F 30 in SW 7.8 mph 15.7 mph 60 % 0 in
12:46 72.9 °F 59 °F 30 in West 12.1 mph 17.7 mph 60 % 0 in
12:52 72.1 °F 57.2 °F 30.1 in WSW 12.8 mph 17.7 mph 59 % 0 in
12:57 72.5 °F 57.2 °F 30.1 in West 12.5 mph 17.2 mph 57 % 0 in
13:02 73.2 °F 57.2 °F 30.1 in WSW 13 mph 20.1 mph 57 % 0 in
13:07 73 °F 55.4 °F 30.1 in WSW 14.8 mph 20.1 mph 55 % 0 in
13:12 72.9 °F 55.4 °F 30.1 in West 13.2 mph 17.7 mph 53 % 0 in
13:17 72.9 °F 55.4 °F 30 in SW 10.3 mph 17.7 mph 54 % 0 in
13:22 73.2 °F 55.4 °F 30 in WSW 10.7 mph 17.2 mph 54 % 0 in
13:27 73.6 °F 55.4 °F 30 in WSW 13 mph 15.4 mph 54 % 0 in
13:32 74.1 °F 57.2 °F 30 in SSW 9.8 mph 15.4 mph 54 % 0 in
13:37 73.8 °F 55.4 °F 30 in SW 10.5 mph 15.9 mph 53 % 0 in
13:42 73.4 °F 55.4 °F 30 in West 14.8 mph 17.7 mph 52 % 0 in
13:47 72.9 °F 53.6 °F 30.1 in West 14.5 mph 22.6 mph 51 % 0 in
13:52 73.4 °F 55.4 °F 30.1 in WSW 15.2 mph 22.6 mph 52 % 0 in
13:57 73.9 °F 55.4 °F 30.1 in SSW 8.5 mph 19.5 mph 52 % 0 in
14:02 74.8 °F 55.4 °F 30 in SSW 13.2 mph 14.5 mph 52 % 0 in
14:08 74.7 °F 55.4 °F 30 in WSW 12.5 mph 19 mph 50 % 0 in
14:13 74.5 °F 55.4 °F 30 in WSW 11.2 mph 23.5 mph 51 % 0 in
14:18 73.8 °F 55.4 °F 30 in WSW 13.2 mph 23.5 mph 52 % 0 in
14:23 75.2 °F 57.2 °F 30 in WSW 10.3 mph 17.7 mph 53 % 0 in
14:28 74.8 °F 55.4 °F 30 in WSW 19 mph 19.9 mph 50 % 0 in
14:30 74.3 °F 55.4 °F 30 in WSW 14.5 mph 22.4 mph 50 % 0 in
14:35 74.5 °F 55.4 °F 30.1 in WSW 15.9 mph 22.4 mph 52 % 0 in
14:40 74.1 °F 55.4 °F 30.1 in WSW 12.5 mph 19.7 mph 52 % 0 in
14:45 74.1 °F 55.4 °F 30.1 in WSW 13.6 mph 22.4 mph 52 % 0 in
14:50 74.3 °F 55.4 °F 30 in West 12.8 mph 22.4 mph 50 % 0 in
14:55 74.1 °F 53.6 °F 30 in WSW 10.3 mph 21.5 mph 49 % 0 in
15:00 74.7 °F 55.4 °F 30 in WSW 12.1 mph 21.5 mph 50 % 0 in
15:05 73.8 °F 53.6 °F 30 in SW 10.5 mph 19.7 mph 49 % 0 in
15:10 73.8 °F 55.4 °F 30 in West 16.8 mph 19.7 mph 50 % 0 in
15:16 73.4 °F 53.6 °F 30.1 in West 17.2 mph 19.5 mph 50 % 0 in
15:21 73.9 °F 55.4 °F 30.1 in WSW 15.2 mph 19.5 mph 51 % 0 in
15:26 74.3 °F 55.4 °F 30.1 in WSW 15.7 mph 19.7 mph 49 % 0 in
15:28 74.3 °F 55.4 °F 30.1 in West 12.8 mph 19.7 mph 49 % 0 in
15:33 73.4 °F 53.6 °F 30 in West 21.9 mph 25.3 mph 48 % 0 in
15:38 73.9 °F 55.4 °F 30 in WSW 11.9 mph 25.3 mph 50 % 0 in
15:43 73.9 °F 53.6 °F 30 in SW 15.9 mph 22.4 mph 48 % 0 in
15:48 73.4 °F 53.6 °F 30 in West 13.2 mph 22.4 mph 49 % 0 in
15:53 73.6 °F 55.4 °F 30 in WSW 11 mph 22.8 mph 51 % 0 in
15:58 73.4 °F 55.4 °F 30 in SSW 8.7 mph 22.8 mph 51 % 0 in
16:03 73.6 °F 53.6 °F 30 in WSW 15.9 mph 22.6 mph 50 % 0 in
16:08 73.8 °F 55.4 °F 30 in West 13.2 mph 19.9 mph 51 % 0 in
16:13 74.1 °F 55.4 °F 30 in WSW 10.3 mph 18.8 mph 51 % 0 in
16:18 73.4 °F 53.6 °F 30.1 in West 20.8 mph 22.4 mph 50 % 0 in
16:23 73 °F 53.6 °F 30.1 in WSW 19.5 mph 25.5 mph 50 % 0 in
16:28 72.7 °F 53.6 °F 30.1 in WSW 17.7 mph 25.5 mph 51 % 0 in
16:33 72.9 °F 55.4 °F 30 in WSW 14.8 mph 24.2 mph 52 % 0 in
16:38 73 °F 53.6 °F 30 in WSW 19.5 mph 21 mph 50 % 0 in
16:43 72.9 °F 53.6 °F 30 in West 13.2 mph 21 mph 50 % 0 in
16:48 73.4 °F 53.6 °F 30.1 in WSW 11 mph 19.7 mph 49 % 0 in
16:53 73.2 °F 53.6 °F 30.1 in WSW 10.7 mph 19.5 mph 49 % 0 in
16:58 73 °F 51.8 °F 30.1 in WSW 15.2 mph 23 mph 47 % 0 in
17:03 73 °F 51.8 °F 30 in WSW 17.4 mph 23 mph 48 % 0 in
17:09 73.2 °F 53.6 °F 30 in West 20.6 mph 20.8 mph 49 % 0 in
17:14 72.9 °F 53.6 °F 30 in WSW 11 mph 20.8 mph 49 % 0 in
17:19 73 °F 53.6 °F 30 in SW 12.1 mph 20.6 mph 50 % 0 in
17:24 73.2 °F 53.6 °F 30 in West 13.2 mph 22.4 mph 49 % 0 in
17:29 73 °F 53.6 °F 30 in West 21.9 mph 22.8 mph 49 % 0 in
17:34 73 °F 53.6 °F 30 in WSW 13.2 mph 22.8 mph 50 % 0 in
17:37 72.5 °F 53.6 °F 30 in West 13.4 mph 22.8 mph 50 % 0 in
17:42 72 °F 53.6 °F 30 in West 15.2 mph 22.4 mph 51 % 0 in
17:47 72.1 °F 53.6 °F 30 in West 17.2 mph 22.4 mph 51 % 0 in
17:52 72.3 °F 53.6 °F 30 in West 22.1 mph 22.1 mph 51 % 0 in
17:57 71.4 °F 53.6 °F 30 in WSW 19.7 mph 23.3 mph 53 % 0 in
18:02 71.1 °F 53.6 °F 30.1 in West 15.9 mph 23.3 mph 53 % 0 in
18:08 70.9 °F 53.6 °F 30.1 in West 19.9 mph 22.8 mph 53 % 0 in
18:13 71.2 °F 53.6 °F 30.1 in West 14.5 mph 22.8 mph 54 % 0 in
18:18 71.1 °F 53.6 °F 30 in SSW 7.8 mph 21.9 mph 54 % 0 in
18:23 71.8 °F 55.4 °F 30 in West 17.9 mph 20.8 mph 54 % 0 in
18:28 71.8 °F 53.6 °F 30 in WSW 13 mph 21.5 mph 53 % 0 in
18:33 71.6 °F 53.6 °F 30 in West 12.8 mph 21.5 mph 52 % 0 in
18:38 71.8 °F 53.6 °F 30 in West 13 mph 17.7 mph 53 % 0 in
18:43 71.2 °F 53.6 °F 30 in West 16.1 mph 23.9 mph 53 % 0 in
18:48 71.1 °F 53.6 °F 30 in West 12.3 mph 23.9 mph 53 % 0 in
18:53 71.6 °F 53.6 °F 30 in WSW 15.2 mph 22.8 mph 52 % 0 in
18:58 71.1 °F 53.6 °F 30 in WSW 18.6 mph 22.6 mph 52 % 0 in
19:03 70.5 °F 53.6 °F 30.1 in WSW 19.2 mph 23.3 mph 53 % 0 in
19:08 70.3 °F 53.6 °F 30.1 in West 15.4 mph 25.5 mph 53 % 0 in
19:13 69.4 °F 51.8 °F 30.1 in West 17.2 mph 25.5 mph 54 % 0 in
19:18 69.3 °F 53.6 °F 30.1 in West 20.1 mph 26.8 mph 56 % 0 in
19:23 69.3 °F 53.6 °F 30.1 in West 14.5 mph 26.8 mph 56 % 0 in
19:28 68.4 °F 53.6 °F 30.1 in West 17 mph 24.2 mph 57 % 0 in
19:33 68 °F 53.6 °F 30.1 in WSW 16.3 mph 24.2 mph 58 % 0 in
19:38 67.5 °F 53.6 °F 30.1 in West 15.4 mph 22.8 mph 60 % 0 in
19:43 67.3 °F 53.6 °F 30.1 in West 15.4 mph 22.8 mph 61 % 0 in
19:49 67.6 °F 53.6 °F 30.1 in West 23.7 mph 23.7 mph 61 % 0 in
19:54 68 °F 55.4 °F 30.1 in WSW 10.3 mph 23.7 mph 62 % 0 in
19:59 67.3 °F 53.6 °F 30.1 in SW 19 mph 25.1 mph 61 % 0 in
20:03 66.9 °F 53.6 °F 30.1 in WSW 15.2 mph 25.1 mph 62 % 0 in
20:09 66.6 °F 53.6 °F 30.1 in WSW 17.2 mph 24.4 mph 63 % 0 in
20:14 66.7 °F 53.6 °F 30.1 in West 14.8 mph 25.3 mph 63 % 0 in
20:19 66.4 °F 53.6 °F 30.1 in West 9.8 mph 25.3 mph 63 % 0 in
20:24 66.2 °F 53.6 °F 30.1 in West 12.5 mph 23 mph 64 % 0 in
20:29 66 °F 55.4 °F 30.1 in West 13.2 mph 19.5 mph 65 % 0 in
20:34 66 °F 55.4 °F 30.1 in West 16.1 mph 25.3 mph 66 % 0 in
20:39 65.8 °F 53.6 °F 30.1 in West 10.3 mph 25.3 mph 65 % 0 in
20:44 65.8 °F 53.6 °F 30.1 in WSW 13 mph 22.6 mph 66 % 0 in
20:49 65.8 °F 53.6 °F 30.1 in SSW 9.6 mph 16.8 mph 66 % 0 in
20:54 66 °F 55.4 °F 30.1 in WSW 9.8 mph 16.8 mph 66 % 0 in
20:59 66 °F 55.4 °F 30.1 in WSW 14.8 mph 17.4 mph 67 % 0 in
21:04 65.8 °F 53.6 °F 30.1 in WSW 13 mph 17.4 mph 66 % 0 in
21:09 65.8 °F 55.4 °F 30.1 in WSW 17.2 mph 17.4 mph 67 % 0 in
21:10 65.8 °F 55.4 °F 30.1 in SW 12.5 mph 17.4 mph 67 % 0 in
21:15 65.7 °F 55.4 °F 30.1 in SW 14.8 mph 19.9 mph 67 % 0 in
21:20 65.5 °F 55.4 °F 30.1 in West 17.4 mph 19.9 mph 68 % 0 in
21:25 65.3 °F 55.4 °F 30.1 in West 13.2 mph 19.7 mph 68 % 0 in
21:30 65.1 °F 55.4 °F 30.1 in WSW 7.8 mph 19.5 mph 68 % 0 in
21:35 64.9 °F 55.4 °F 30.1 in West 10.5 mph 20.6 mph 69 % 0 in
21:40 64.6 °F 53.6 °F 30.1 in WSW 10.7 mph 20.6 mph 69 % 0 in
21:45 64.4 °F 55.4 °F 30.1 in WSW 8.5 mph 17 mph 70 % 0 in
21:50 64.2 °F 55.4 °F 30.1 in West 7.6 mph 13.6 mph 71 % 0 in
21:55 64.2 °F 55.4 °F 30.1 in WSW 14.5 mph 16.3 mph 71 % 0 in
22:00 64 °F 55.4 °F 30.1 in West 11 mph 17 mph 72 % 0 in
22:05 63.7 °F 55.4 °F 30.1 in WSW 10.7 mph 17 mph 72 % 0 in
22:10 63.3 °F 55.4 °F 30.1 in West 12.8 mph 16.3 mph 73 % 0 in
22:15 63.3 °F 55.4 °F 30.1 in WSW 12.5 mph 16.3 mph 74 % 0 in
22:20 63 °F 55.4 °F 30.1 in WSW 13 mph 17 mph 74 % 0 in
22:26 62.8 °F 55.4 °F 30.1 in WSW 12.5 mph 17 mph 75 % 0 in
22:31 62.6 °F 55.4 °F 30.1 in West 10.7 mph 16.3 mph 76 % 0 in
22:36 62.6 °F 55.4 °F 30.1 in WSW 7.6 mph 16.3 mph 77 % 0 in
22:41 62.2 °F 55.4 °F 30.1 in SW 7.4 mph 12.5 mph 78 % 0 in
22:46 62.1 °F 55.4 °F 30.1 in WSW 6.3 mph 12.5 mph 79 % 0 in
22:51 61.9 °F 55.4 °F 30.1 in WSW 6.5 mph 11.4 mph 80 % 0 in
22:56 61.7 °F 55.4 °F 30.1 in WNW 6 mph 10.1 mph 80 % 0 in
23:01 61.7 °F 55.4 °F 30.1 in WSW 7.8 mph 12.3 mph 81 % 0 in
23:06 61.5 °F 55.4 °F 30.1 in WSW 4.7 mph 12.3 mph 81 % 0 in
23:11 61.2 °F 55.4 °F 30.1 in SW 6 mph 10.5 mph 81 % 0 in
23:16 61.2 °F 55.4 °F 30.1 in SW 2.9 mph 10.5 mph 81 % 0 in
23:21 61 °F 55.4 °F 30.1 in WSW 5.6 mph 8.7 mph 82 % 0 in
23:26 61 °F 55.4 °F 30.1 in SW 5.4 mph 10.3 mph 82 % 0 in
23:31 60.8 °F 55.4 °F 30.1 in SSW 5.6 mph 10.3 mph 83 % 0 in
23:36 60.6 °F 55.4 °F 30.1 in WSW 1.6 mph 8.5 mph 83 % 0 in
23:41 60.6 °F 55.4 °F 30.1 in SW 7.6 mph 9.8 mph 83 % 0 in
23:46 60.4 °F 55.4 °F 30.1 in SW 6.7 mph 9.8 mph 84 % 0 in
23:51 60.4 °F 55.4 °F 30.1 in SW 6.3 mph 10.5 mph 84 % 0 in
23:56 60.3 °F 55.4 °F 30.1 in WSW 6.5 mph 10.5 mph 84 % 0 in
Le Gheer Warneton
Courtoisie de Weather Underground - 2.25 mb

Mise a jour : 17/12/2017 22:38:11
Généré par Cumulus 1.9.4 (1099)